createdAt,value
2022-12-24T00:01:36.374Z,10.75
2022-12-24T00:04:04.961Z,10.75
2022-12-24T00:06:33.307Z,10.75
2022-12-24T00:09:01.790Z,10.75
2022-12-24T00:11:30.168Z,10.75
2022-12-24T00:13:58.594Z,10.74
2022-12-24T00:16:28.711Z,10.74
2022-12-24T00:18:57.092Z,10.75
2022-12-24T00:21:25.458Z,10.75
2022-12-24T00:23:53.838Z,10.74
2022-12-24T00:26:22.477Z,10.74
2022-12-24T00:28:51.170Z,10.75
2022-12-24T00:31:20.394Z,10.76
2022-12-24T00:33:50.224Z,10.76
2022-12-24T00:36:20.130Z,10.78
2022-12-24T00:38:48.843Z,10.77
2022-12-24T00:41:26.531Z,10.78
2022-12-24T00:43:56.377Z,10.76
2022-12-24T00:46:25.408Z,10.74
2022-12-24T00:48:55.939Z,10.72
2022-12-24T00:51:25.401Z,10.70
2022-12-24T00:53:53.913Z,10.69
2022-12-24T00:56:22.829Z,10.69
2022-12-24T00:58:51.613Z,10.68
2022-12-24T01:01:20.421Z,10.68
2022-12-24T01:03:49.185Z,10.65
2022-12-24T01:06:19.954Z,10.63
2022-12-24T01:08:51.646Z,10.63
2022-12-24T01:11:20.114Z,10.64
2022-12-24T01:13:48.508Z,10.64
2022-12-24T01:16:19.462Z,10.63
2022-12-24T01:18:48.091Z,10.62
2022-12-24T01:21:18.265Z,10.61
2022-12-24T01:23:46.700Z,10.60
2022-12-24T01:26:15.053Z,10.58
2022-12-24T01:28:43.776Z,10.58
2022-12-24T01:31:13.885Z,10.57
2022-12-24T01:33:42.693Z,10.58
2022-12-24T01:36:11.585Z,10.56
2022-12-24T01:38:41.623Z,10.56
2022-12-24T01:41:33.267Z,10.56
2022-12-24T01:44:26.165Z,10.55
2022-12-24T01:47:03.441Z,10.54
2022-12-24T01:49:32.130Z,10.53
2022-12-24T01:52:06.045Z,10.54
2022-12-24T01:54:40.461Z,10.54
2022-12-24T01:57:11.863Z,10.52
2022-12-24T01:59:44.867Z,10.52
2022-12-24T02:02:14.508Z,10.51
2022-12-24T02:04:49.657Z,10.51
2022-12-24T02:07:18.169Z,10.50
2022-12-24T02:09:50.623Z,10.50
2022-12-24T02:12:18.913Z,10.50
2022-12-24T02:14:47.267Z,10.48
2022-12-24T02:17:22.047Z,10.48
2022-12-24T02:20:17.923Z,10.47
2022-12-24T02:23:04.633Z,10.45
2022-12-24T02:25:53.532Z,10.45
2022-12-24T02:28:43.605Z,10.44
2022-12-24T02:31:17.582Z,10.44
2022-12-24T02:33:51.647Z,10.42
2022-12-24T02:36:27.916Z,10.41
2022-12-24T02:39:02.810Z,10.40
2022-12-24T02:41:55.094Z,10.38
2022-12-24T02:44:26.229Z,10.38
2022-12-24T02:46:57.800Z,10.36
2022-12-24T02:49:26.362Z,10.35
2022-12-24T02:51:54.700Z,10.34
2022-12-24T02:54:23.626Z,10.32
2022-12-24T02:57:07.380Z,10.31
2022-12-24T02:59:52.632Z,10.29
2022-12-24T03:02:30.928Z,10.27
2022-12-24T03:05:13.486Z,10.24
2022-12-24T03:07:52.454Z,10.23
2022-12-24T03:10:27.903Z,10.22
2022-12-24T03:13:03.218Z,10.19
2022-12-24T03:15:33.487Z,10.17
2022-12-24T03:18:06.646Z,10.14
2022-12-24T03:20:39.559Z,10.11
2022-12-24T03:23:08.239Z,10.10
2022-12-24T03:25:42.051Z,10.09
2022-12-24T03:28:13.067Z,10.08
2022-12-24T03:30:42.648Z,10.09
2022-12-24T03:33:16.214Z,10.10
2022-12-24T03:35:44.640Z,10.10
2022-12-24T03:38:12.947Z,10.11
2022-12-24T03:40:41.281Z,10.13
2022-12-24T03:43:09.602Z,10.13
2022-12-24T03:45:38.260Z,10.14
2022-12-24T03:48:06.942Z,10.15
2022-12-24T03:50:36.586Z,10.18
2022-12-24T03:53:04.888Z,10.18
2022-12-24T03:55:33.258Z,10.19
2022-12-24T03:58:01.597Z,10.20
2022-12-24T04:00:29.899Z,10.19
2022-12-24T04:02:58.284Z,10.21
2022-12-24T04:05:26.695Z,10.21
2022-12-24T04:07:56.401Z,10.23
2022-12-24T04:10:24.780Z,10.24
2022-12-24T04:12:53.101Z,10.25
2022-12-24T04:15:21.473Z,10.25
2022-12-24T04:17:49.788Z,10.26
2022-12-24T04:20:18.274Z,10.27
2022-12-24T04:22:46.622Z,10.28
2022-12-24T04:25:16.383Z,10.27
2022-12-24T04:27:44.680Z,10.29
2022-12-24T04:30:13.369Z,10.29
2022-12-24T04:32:41.668Z,10.29
2022-12-24T04:35:10.739Z,10.30
2022-12-24T04:37:39.040Z,10.30
2022-12-24T04:40:08.569Z,10.30
2022-12-24T04:42:38.218Z,10.31
2022-12-24T04:45:07.377Z,10.32
2022-12-24T04:47:35.676Z,10.33
2022-12-24T04:50:04.259Z,10.33
2022-12-24T04:52:32.549Z,10.34
2022-12-24T04:55:00.959Z,10.33
2022-12-24T04:57:29.291Z,10.32
2022-12-24T04:59:58.972Z,10.30
2022-12-24T05:02:27.415Z,10.28
2022-12-24T05:04:55.877Z,10.25
2022-12-24T05:07:24.242Z,10.23
2022-12-24T05:09:52.548Z,10.22
2022-12-24T05:12:20.867Z,10.21
2022-12-24T05:14:49.239Z,10.19
2022-12-24T05:17:18.940Z,10.18
2022-12-24T05:19:47.286Z,10.17
2022-12-24T05:22:32.896Z,10.15
2022-12-24T05:25:18.483Z,10.13
2022-12-24T05:27:51.081Z,10.12
2022-12-24T05:30:20.145Z,10.12
2022-12-24T05:32:49.857Z,10.11
2022-12-24T05:35:18.212Z,10.12
2022-12-24T05:37:46.616Z,10.11
2022-12-24T05:40:15.141Z,10.11
2022-12-24T05:42:43.406Z,10.12
2022-12-24T05:45:11.703Z,10.11
2022-12-24T05:47:43.437Z,10.11
2022-12-24T05:50:13.927Z,10.11
2022-12-24T05:52:42.287Z,10.11
2022-12-24T05:55:11.395Z,10.11
2022-12-24T05:57:40.904Z,10.11
2022-12-24T06:00:10.542Z,10.11
2022-12-24T06:02:40.658Z,10.11
2022-12-24T06:05:09.762Z,10.12
2022-12-24T06:07:42.363Z,10.12
2022-12-24T06:10:11.106Z,10.13
2022-12-24T06:12:39.371Z,10.13
2022-12-24T06:15:08.938Z,10.14
2022-12-24T06:17:37.529Z,10.14
2022-12-24T06:20:06.968Z,10.14
2022-12-24T06:22:35.283Z,10.13
2022-12-24T06:25:05.511Z,10.12
2022-12-24T06:27:34.033Z,10.12
2022-12-24T06:30:02.425Z,10.11
2022-12-24T06:32:30.787Z,10.11
2022-12-24T06:34:59.064Z,10.11
2022-12-24T06:37:27.349Z,10.10
2022-12-24T06:39:55.641Z,10.10
2022-12-24T06:42:25.443Z,10.10
2022-12-24T06:44:53.748Z,10.10
2022-12-24T06:47:22.303Z,10.10
2022-12-24T06:49:50.611Z,10.10
2022-12-24T06:52:18.979Z,10.10
2022-12-24T06:54:47.295Z,10.10
2022-12-24T06:57:15.675Z,10.11
2022-12-24T06:59:45.339Z,10.11
2022-12-24T07:02:13.796Z,10.11
2022-12-24T07:04:42.234Z,10.12
2022-12-24T07:07:10.595Z,10.15
2022-12-24T07:09:38.879Z,10.14
2022-12-24T07:12:07.364Z,10.15
2022-12-24T07:14:35.900Z,10.17
2022-12-24T07:17:05.679Z,10.18
2022-12-24T07:19:34.295Z,10.17
2022-12-24T07:22:03.043Z,10.19
2022-12-24T07:24:31.437Z,10.18
2022-12-24T07:26:59.734Z,10.19
2022-12-24T07:29:28.103Z,10.19
2022-12-24T07:31:56.539Z,10.19
2022-12-24T07:34:26.243Z,10.19
2022-12-24T07:36:54.563Z,10.19
2022-12-24T07:39:22.871Z,10.20
2022-12-24T07:41:51.300Z,10.19
2022-12-24T07:44:21.122Z,10.18
2022-12-24T07:46:49.463Z,10.15
2022-12-24T07:49:17.932Z,10.13
2022-12-24T07:51:47.574Z,10.12
2022-12-24T07:54:15.914Z,10.10
2022-12-24T07:56:44.290Z,10.09
2022-12-24T07:59:13.615Z,10.07
2022-12-24T08:01:42.165Z,10.06
2022-12-24T08:04:10.906Z,10.04
2022-12-24T08:06:39.586Z,10.04
2022-12-24T08:09:09.292Z,10.01
2022-12-24T08:11:37.689Z,10.00
2022-12-24T08:14:06.057Z,9.99
2022-12-24T08:16:34.449Z,9.98
2022-12-24T08:19:02.760Z,9.98
2022-12-24T08:21:31.072Z,9.95
2022-12-24T08:23:59.404Z,9.96
2022-12-24T08:26:29.062Z,9.94
2022-12-24T08:28:57.331Z,9.95
2022-12-24T08:31:25.700Z,9.95
2022-12-24T08:33:54.063Z,9.96
2022-12-24T08:36:22.475Z,9.96
2022-12-24T08:38:50.782Z,9.96
2022-12-24T08:41:19.057Z,9.96
2022-12-24T08:43:48.783Z,9.96
2022-12-24T08:46:17.253Z,9.97
2022-12-24T08:48:45.562Z,9.98
2022-12-24T08:51:14.038Z,9.98
2022-12-24T08:53:42.409Z,9.97
2022-12-24T08:56:11.315Z,9.99
2022-12-24T08:58:40.058Z,9.99
2022-12-24T09:01:14.952Z,10.01
2022-12-24T09:03:43.887Z,10.03
2022-12-24T09:06:12.594Z,10.05
2022-12-24T09:08:41.224Z,10.06
2022-12-24T09:11:12.022Z,10.09
2022-12-24T09:13:40.512Z,10.11
2022-12-24T09:16:09.926Z,10.12
2022-12-24T09:18:40.206Z,10.15
2022-12-24T09:21:14.296Z,10.17
2022-12-24T09:23:44.647Z,10.19
2022-12-24T09:26:15.778Z,10.22
2022-12-24T09:28:44.200Z,10.24
2022-12-24T09:31:14.063Z,10.25
2022-12-24T09:33:45.491Z,10.27
2022-12-24T09:36:13.852Z,10.29
2022-12-24T09:38:42.458Z,10.32
2022-12-24T09:41:16.481Z,10.34
2022-12-24T09:43:48.722Z,10.35
2022-12-24T09:46:24.057Z,10.38
2022-12-24T09:48:56.655Z,10.40
2022-12-24T09:51:30.496Z,10.42
2022-12-24T09:54:04.505Z,10.45
2022-12-24T09:56:41.834Z,10.46
2022-12-24T09:59:15.320Z,10.48
2022-12-24T10:01:44.051Z,10.51
2022-12-24T10:04:15.532Z,10.53
2022-12-24T10:06:53.013Z,10.54
2022-12-24T10:09:29.100Z,10.56
2022-12-24T10:12:05.223Z,10.60
2022-12-24T10:14:50.537Z,10.63
2022-12-24T10:17:37.169Z,10.64
2022-12-24T10:20:26.461Z,10.67
2022-12-24T10:23:03.840Z,10.69
2022-12-24T10:25:38.570Z,10.69
2022-12-24T10:28:16.279Z,10.70
2022-12-24T10:30:52.343Z,10.69
2022-12-24T10:33:29.121Z,10.68
2022-12-24T10:36:03.135Z,10.67
2022-12-24T10:38:34.588Z,10.70
2022-12-24T10:41:05.129Z,10.73
2022-12-24T10:43:37.877Z,10.80
2022-12-24T10:46:10.589Z,10.87
2022-12-24T10:48:50.863Z,10.88
2022-12-24T10:51:29.729Z,10.89
2022-12-24T10:54:10.946Z,10.88
2022-12-24T10:56:46.888Z,10.88
2022-12-24T10:59:31.429Z,10.88
2022-12-24T11:02:02.164Z,10.89
2022-12-24T11:04:34.297Z,10.90
2022-12-24T11:07:07.535Z,10.90
2022-12-24T11:09:41.989Z,10.90
2022-12-24T11:12:24.672Z,10.92
2022-12-24T11:15:04.769Z,10.94
2022-12-24T11:17:35.853Z,10.96
2022-12-24T11:20:08.184Z,10.98
2022-12-24T11:22:44.138Z,10.99
2022-12-24T11:25:23.850Z,11.01
2022-12-24T11:27:54.440Z,11.06
2022-12-24T11:30:34.111Z,11.11
2022-12-24T11:33:24.022Z,11.17
2022-12-24T11:35:58.346Z,11.23
2022-12-24T11:38:31.246Z,11.28
2022-12-24T11:41:04.088Z,11.33
2022-12-24T11:43:49.178Z,11.38
2022-12-24T11:46:22.609Z,11.40
2022-12-24T11:49:08.679Z,11.40
2022-12-24T11:51:37.620Z,11.40
2022-12-24T11:54:17.075Z,11.41
2022-12-24T11:56:49.211Z,11.41
2022-12-24T11:59:25.198Z,11.41
2022-12-24T12:01:59.696Z,11.41
2022-12-24T12:04:31.990Z,11.43
2022-12-24T12:07:11.216Z,11.46
2022-12-24T12:09:51.175Z,11.46
2022-12-24T12:12:25.596Z,11.49
2022-12-24T12:14:57.202Z,11.53
2022-12-24T12:17:33.729Z,11.56
2022-12-24T12:20:09.022Z,11.59
2022-12-24T12:22:47.304Z,11.60
2022-12-24T12:25:24.063Z,11.63
2022-12-24T12:27:56.799Z,11.65
2022-12-24T12:30:26.584Z,11.70
2022-12-24T12:33:01.280Z,11.71
2022-12-24T12:35:33.872Z,11.74
2022-12-24T12:38:05.930Z,11.79
2022-12-24T12:40:52.268Z,11.82
2022-12-24T12:43:36.711Z,11.84
2022-12-24T12:46:13.894Z,11.85
2022-12-24T12:49:03.054Z,11.83
2022-12-24T12:51:43.314Z,11.81
2022-12-24T12:54:29.984Z,11.78
2022-12-24T12:57:05.389Z,11.77
2022-12-24T12:59:39.549Z,11.76
2022-12-24T13:02:26.690Z,11.76
2022-12-24T13:05:15.741Z,11.77
2022-12-24T13:08:09.506Z,11.77
2022-12-24T13:11:12.715Z,11.77
2022-12-24T13:14:19.163Z,11.75
2022-12-24T13:17:20.850Z,11.75
2022-12-24T13:20:19.555Z,11.74
2022-12-24T13:22:58.478Z,11.73
2022-12-24T13:25:38.770Z,11.74
2022-12-24T13:28:33.844Z,11.72
2022-12-24T13:31:31.125Z,11.71
2022-12-24T13:34:03.426Z,11.71
2022-12-24T13:37:15.370Z,11.74
2022-12-24T13:40:03.535Z,11.82
2022-12-24T13:43:08.450Z,11.83
2022-12-24T13:45:51.377Z,11.85
2022-12-24T13:48:32.637Z,11.81
2022-12-24T13:51:19.229Z,11.79
2022-12-24T13:53:51.258Z,11.76
2022-12-24T13:56:27.943Z,11.72
2022-12-24T13:59:12.236Z,11.70
2022-12-24T14:01:44.520Z,11.70
2022-12-24T14:04:27.251Z,11.70
2022-12-24T14:07:00.474Z,11.68
2022-12-24T14:09:32.387Z,11.65
2022-12-24T14:12:33.851Z,11.60
2022-12-24T14:15:35.775Z,11.57
2022-12-24T14:18:05.214Z,11.52
2022-12-24T14:20:40.373Z,11.48
2022-12-24T14:23:22.971Z,11.45
2022-12-24T14:25:53.631Z,11.43
2022-12-24T14:28:31.279Z,11.42
2022-12-24T14:31:05.389Z,11.39
2022-12-24T14:33:37.400Z,11.34
2022-12-24T14:36:10.941Z,11.30
2022-12-24T14:38:42.577Z,11.28
2022-12-24T14:41:31.870Z,11.27
2022-12-24T14:44:11.499Z,11.25
2022-12-24T14:46:48.397Z,11.23
2022-12-24T14:49:35.951Z,11.21
2022-12-24T14:52:45.857Z,11.20
2022-12-24T14:55:31.302Z,11.18
2022-12-24T14:58:25.935Z,11.18
2022-12-24T15:00:57.090Z,11.17
2022-12-24T15:03:29.570Z,11.16
2022-12-24T15:06:00.626Z,11.15
2022-12-24T15:08:33.941Z,11.13
2022-12-24T15:11:05.840Z,11.12
2022-12-24T15:13:38.742Z,11.10
2022-12-24T15:16:11.045Z,11.06
2022-12-24T15:18:44.572Z,11.01
2022-12-24T15:21:19.885Z,10.94
2022-12-24T15:23:51.236Z,10.87
2022-12-24T15:26:26.393Z,10.79
2022-12-24T15:29:02.762Z,10.70
2022-12-24T15:31:33.367Z,10.63
2022-12-24T15:34:01.975Z,10.56
2022-12-24T15:36:33.562Z,10.50
2022-12-24T15:39:06.215Z,10.42
2022-12-24T15:42:00.403Z,10.34
2022-12-24T15:44:33.168Z,10.25
2022-12-24T15:47:03.404Z,10.17
2022-12-24T15:49:34.320Z,10.08
2022-12-24T15:52:08.359Z,10.00
2022-12-24T15:54:44.649Z,9.92
2022-12-24T15:57:16.652Z,9.83
2022-12-24T15:59:52.233Z,9.75
2022-12-24T16:02:35.618Z,9.66
2022-12-24T16:05:31.412Z,9.58
2022-12-24T16:08:08.307Z,9.50
2022-12-24T16:10:40.919Z,9.42
2022-12-24T16:13:15.771Z,9.35
2022-12-24T16:15:48.189Z,9.27
2022-12-24T16:18:19.637Z,9.20
2022-12-24T16:20:50.819Z,9.15
2022-12-24T16:23:21.933Z,9.09
2022-12-24T16:25:54.121Z,9.02
2022-12-24T16:28:23.364Z,8.97
2022-12-24T16:30:52.148Z,8.93
2022-12-24T16:33:23.429Z,8.85
2022-12-24T16:35:52.142Z,8.80
2022-12-24T16:38:24.512Z,8.75
2022-12-24T16:40:54.557Z,8.69
2022-12-24T16:43:51.939Z,8.64
2022-12-24T16:46:20.827Z,8.57
2022-12-24T16:48:50.183Z,8.52
2022-12-24T16:51:18.903Z,8.47
2022-12-24T16:53:47.556Z,8.42
2022-12-24T16:56:17.497Z,8.37
2022-12-24T16:58:46.137Z,8.33
2022-12-24T17:01:14.803Z,8.30
2022-12-24T17:03:43.428Z,8.27
2022-12-24T17:06:12.013Z,8.24
2022-12-24T17:08:40.896Z,8.20
2022-12-24T17:11:09.399Z,8.17
2022-12-24T17:13:39.337Z,8.12
2022-12-24T17:16:08.933Z,8.09
2022-12-24T17:18:37.543Z,8.05
2022-12-24T17:21:06.950Z,8.02
2022-12-24T17:23:35.735Z,7.99
2022-12-24T17:26:10.724Z,7.95
2022-12-24T17:28:43.185Z,7.92
2022-12-24T17:31:14.342Z,7.89
2022-12-24T17:33:43.034Z,7.88
2022-12-24T17:36:12.301Z,7.84
2022-12-24T17:38:41.360Z,7.82
2022-12-24T17:41:12.835Z,7.80
2022-12-24T17:43:41.668Z,7.78
2022-12-24T17:46:15.453Z,7.77
2022-12-24T17:48:45.364Z,7.77
2022-12-24T17:51:15.902Z,7.77
2022-12-24T17:53:44.995Z,7.78
2022-12-24T17:56:15.438Z,7.78
2022-12-24T17:58:45.572Z,7.76
2022-12-24T18:01:18.055Z,7.75
2022-12-24T18:03:47.817Z,7.75
2022-12-24T18:06:21.453Z,7.72
2022-12-24T18:08:50.025Z,7.72
2022-12-24T18:11:21.983Z,7.70
2022-12-24T18:13:51.816Z,7.69
2022-12-24T18:16:24.330Z,7.68
2022-12-24T18:18:53.940Z,7.67
2022-12-24T18:21:24.800Z,7.64
2022-12-24T18:23:55.238Z,7.64
2022-12-24T18:26:25.579Z,7.62
2022-12-24T18:28:55.390Z,7.60
2022-12-24T18:31:26.851Z,7.57
2022-12-24T18:33:56.670Z,7.55
2022-12-24T18:36:26.386Z,7.52
2022-12-24T18:38:55.769Z,7.48
2022-12-24T18:41:27.849Z,7.47
2022-12-24T18:43:58.408Z,7.46
2022-12-24T18:46:30.984Z,7.43
2022-12-24T18:49:01.407Z,7.42
2022-12-24T18:51:32.506Z,7.40
2022-12-24T18:54:02.755Z,7.41
2022-12-24T18:56:32.101Z,7.40
2022-12-24T18:59:03.601Z,7.41
2022-12-24T19:01:35.426Z,7.42
2022-12-24T19:04:04.662Z,7.43
2022-12-24T19:06:33.266Z,7.43
2022-12-24T19:09:02.233Z,7.43
2022-12-24T19:11:35.085Z,7.42
2022-12-24T19:14:06.308Z,7.44
2022-12-24T19:16:38.656Z,7.45
2022-12-24T19:19:09.593Z,7.46
2022-12-24T19:21:38.235Z,7.48
2022-12-24T19:24:10.815Z,7.49
2022-12-24T19:26:40.379Z,7.51
2022-12-24T19:29:09.004Z,7.53
2022-12-24T19:31:39.180Z,7.54
2022-12-24T19:34:07.761Z,7.57
2022-12-24T19:36:36.564Z,7.59
2022-12-24T19:39:05.200Z,7.61
2022-12-24T19:41:33.707Z,7.66
2022-12-24T19:44:03.287Z,7.68
2022-12-24T19:46:34.131Z,7.71
2022-12-24T19:49:06.529Z,7.73
2022-12-24T19:51:36.195Z,7.76
2022-12-24T19:54:06.782Z,7.78
2022-12-24T19:56:35.570Z,7.79
2022-12-24T19:59:04.601Z,7.82
2022-12-24T20:01:36.092Z,7.85
2022-12-24T20:04:06.470Z,7.86
2022-12-24T20:06:36.088Z,7.87
2022-12-24T20:09:06.750Z,7.88
2022-12-24T20:11:35.849Z,7.89
2022-12-24T20:14:06.245Z,7.90
2022-12-24T20:16:36.013Z,7.92
2022-12-24T20:19:08.116Z,7.94
2022-12-24T20:21:38.168Z,7.98
2022-12-24T20:24:07.940Z,8.00
2022-12-24T20:26:37.615Z,8.03
2022-12-24T20:29:07.377Z,8.05
2022-12-24T20:31:37.236Z,8.08
2022-12-24T20:34:08.714Z,8.07
2022-12-24T20:36:38.524Z,8.08
2022-12-24T20:39:07.932Z,8.09
2022-12-24T20:41:37.285Z,8.10
2022-12-24T20:44:06.416Z,8.10
2022-12-24T20:46:35.536Z,8.12
2022-12-24T20:49:05.321Z,8.12
2022-12-24T20:51:35.224Z,8.13
2022-12-24T20:54:03.709Z,8.17
2022-12-24T20:56:32.443Z,8.20
2022-12-24T20:59:02.267Z,8.25
2022-12-24T21:01:31.351Z,8.29
2022-12-24T21:04:04.874Z,8.34
2022-12-24T21:06:35.941Z,8.38
2022-12-24T21:09:06.848Z,8.42
2022-12-24T21:11:53.306Z,8.46
2022-12-24T21:14:24.481Z,8.51
2022-12-24T21:16:55.110Z,8.55
2022-12-24T21:19:25.593Z,8.58
2022-12-24T21:21:55.930Z,8.62
2022-12-24T21:24:24.426Z,8.67
2022-12-24T21:26:52.984Z,8.70
2022-12-24T21:29:22.404Z,8.73
2022-12-24T21:31:51.321Z,8.74
2022-12-24T21:34:19.696Z,8.77
2022-12-24T21:36:48.293Z,8.80
2022-12-24T21:39:18.259Z,8.82
2022-12-24T21:41:47.077Z,8.85
2022-12-24T21:44:15.915Z,8.88
2022-12-24T21:46:44.655Z,8.90
2022-12-24T21:49:30.985Z,8.92
2022-12-24T21:52:00.459Z,8.94
2022-12-24T21:54:31.367Z,8.96
2022-12-24T21:57:19.759Z,8.98
2022-12-24T21:59:51.628Z,9.00
2022-12-24T22:02:22.715Z,9.01
2022-12-24T22:04:51.585Z,9.02
2022-12-24T22:07:40.583Z,9.03
2022-12-24T22:10:29.392Z,9.02
2022-12-24T22:12:59.753Z,9.03
2022-12-24T22:15:31.111Z,9.02
2022-12-24T22:17:59.690Z,9.02
2022-12-24T22:20:28.286Z,9.02
2022-12-24T22:22:56.779Z,9.02
2022-12-24T22:25:26.676Z,9.03
2022-12-24T22:27:55.135Z,9.03
2022-12-24T22:30:23.596Z,9.04
2022-12-24T22:32:52.068Z,9.03
2022-12-24T22:35:21.032Z,9.03
2022-12-24T22:37:51.973Z,9.01
2022-12-24T22:40:28.285Z,9.01
2022-12-24T22:42:57.195Z,9.01
2022-12-24T22:45:25.754Z,9.00
2022-12-24T22:47:54.334Z,8.99
2022-12-24T22:50:23.421Z,9.00
2022-12-24T22:52:52.634Z,9.01
2022-12-24T22:55:21.204Z,8.99
2022-12-24T22:57:51.156Z,9.00
2022-12-24T23:00:39.775Z,8.99
2022-12-24T23:03:09.231Z,9.00
2022-12-24T23:05:38.384Z,8.99
2022-12-24T23:08:08.429Z,8.98
2022-12-24T23:10:37.402Z,8.99
2022-12-24T23:13:25.249Z,8.98
2022-12-24T23:15:53.717Z,8.97
2022-12-24T23:18:22.213Z,8.98
2022-12-24T23:20:50.691Z,8.96
2022-12-24T23:23:19.284Z,8.98
2022-12-24T23:25:47.935Z,8.98
2022-12-24T23:28:17.783Z,8.98
2022-12-24T23:30:47.078Z,8.99
2022-12-24T23:33:15.946Z,8.99
2022-12-24T23:35:44.533Z,9.00
2022-12-24T23:38:13.020Z,9.01
2022-12-24T23:40:42.758Z,9.02
2022-12-24T23:43:11.536Z,9.02
2022-12-24T23:45:47.099Z,9.03
2022-12-24T23:48:17.105Z,9.01
2022-12-24T23:50:46.618Z,9.01
2022-12-24T23:53:16.778Z,9.02
2022-12-24T23:55:45.837Z,9.01
2022-12-24T23:58:15.954Z,8.99
